Time,TemperatureF,DewpointF,PressureIn,WindDirection,WindDirectionDegrees,WindSpeedMPH,WindSpeedGustMPH,Humidity,HourlyPrecipIn,Conditions,Clouds,dailyrainin,SoftwareType,DateUTC
2013-02-25 00:01:00,80.0,69.0,29.92,SW,228,5.0,6.0,70,-99.99,,,-99.99,,2013-02-25 05:01:00,
2013-02-25 00:22:00,78.0,68.0,29.92,WSW,255,5.0,6.0,72,-99.99,,,-99.99,,2013-02-25 05:22:00,
2013-02-25 00:32:00,78.0,68.0,29.91,West,277,5.0,5.0,71,-99.99,,,-99.99,,2013-02-25 05:32:00,
2013-02-25 00:42:00,78.0,68.0,29.91,West,277,5.0,5.0,71,-99.99,,,-99.99,,2013-02-25 05:42:00,
2013-02-25 00:52:00,78.0,68.0,29.91,WNW,293,5.0,7.0,72,-99.99,,,-99.99,,2013-02-25 05:52:00,
2013-02-25 01:02:00,76.0,67.0,29.91,NNW,333,5.0,7.0,75,-99.99,,,-99.99,,2013-02-25 06:02:00,
2013-02-25 01:11:00,76.0,67.0,29.91,NNW,333,5.0,7.0,75,-99.99,,,-99.99,,2013-02-25 06:11:00,
2013-02-25 01:21:00,76.0,67.0,29.91,NW,307,5.0,6.0,73,-99.99,,,-99.99,,2013-02-25 06:21:00,
2013-02-25 01:32:00,76.0,68.0,29.91,NNW,346,6.0,7.0,76,-99.99,,,-99.99,,2013-02-25 06:32:00,
2013-02-25 01:42:00,76.0,68.0,29.91,NNW,346,6.0,7.0,76,-99.99,,,-99.99,,2013-02-25 06:42:00,
2013-02-25 02:01:00,75.0,66.0,29.91,NNW,332,8.0,9.0,73,-99.99,,,-99.99,,2013-02-25 07:01:00,
2013-02-25 02:11:00,76.0,66.0,29.90,NW,323,8.0,9.0,71,-99.99,,,-99.99,,2013-02-25 07:11:00,
2013-02-25 02:21:00,76.0,66.0,29.90,NW,323,8.0,9.0,71,-99.99,,,-99.99,,2013-02-25 07:21:00,
2013-02-25 02:32:00,75.0,65.0,29.90,NW,311,7.0,8.0,72,-99.99,,,-99.99,,2013-02-25 07:32:00,
2013-02-25 02:42:00,75.0,65.0,29.90,NW,311,7.0,8.0,72,-99.99,,,-99.99,,2013-02-25 07:42:00,
2013-02-25 02:52:00,75.0,66.0,29.89,NW,318,3.0,5.0,74,-99.99,,,-99.99,,2013-02-25 07:52:00,
2013-02-25 03:01:00,75.0,66.0,29.88,North,7,2.0,4.0,73,-99.99,,,-99.99,,2013-02-25 08:01:00,
2013-02-25 03:11:00,75.0,67.0,29.88,SE,129,2.0,4.0,75,-99.99,,,-99.99,,2013-02-25 08:11:00,
2013-02-25 03:21:00,75.0,67.0,29.88,SE,129,2.0,4.0,75,-99.99,,,-99.99,,2013-02-25 08:21:00,
2013-02-25 03:32:00,75.0,68.0,29.88,NNE,13,2.0,4.0,78,-99.99,,,-99.99,,2013-02-25 08:32:00,
2013-02-25 03:42:00,75.0,68.0,29.88,NNE,13,2.0,4.0,78,-99.99,,,-99.99,,2013-02-25 08:42:00,
2013-02-25 03:52:00,75.0,67.0,29.88,ESE,113,3.0,6.0,77,-99.99,,,-99.99,,2013-02-25 08:52:00,
2013-02-25 04:01:00,75.0,66.0,29.88,ESE,107,3.0,4.0,74,-99.99,,,-99.99,,2013-02-25 09:01:00,
2013-02-25 04:12:00,75.0,66.0,29.88,ESE,107,3.0,4.0,74,-99.99,,,-99.99,,2013-02-25 09:12:00,
2013-02-25 04:21:00,75.0,67.0,29.89,NE,35,0.0,2.0,75,-99.99,,,-99.99,,2013-02-25 09:21:00,
2013-02-25 04:32:00,75.0,68.0,29.88,SE,134,2.0,5.0,78,-99.99,,,-99.99,,2013-02-25 09:32:00,
2013-02-25 04:42:00,75.0,68.0,29.88,SE,134,2.0,5.0,78,-99.99,,,-99.99,,2013-02-25 09:42:00,
2013-02-25 04:52:00,75.0,68.0,29.88,SE,136,3.0,6.0,79,-99.99,,,-99.99,,2013-02-25 09:52:00,
2013-02-25 05:01:00,75.0,69.0,29.87,SSE,149,2.0,6.0,81,-99.99,,,-99.99,,2013-02-25 10:01:00,
2013-02-25 05:11:00,76.0,71.0,29.87,SSE,156,9.0,14.0,84,-99.99,,,-99.99,,2013-02-25 10:11:00,
2013-02-25 05:21:00,76.0,71.0,29.87,SSE,156,9.0,14.0,84,-99.99,,,-99.99,,2013-02-25 10:21:00,
2013-02-25 05:32:00,75.0,70.0,29.88,NE,35,3.0,8.0,85,-99.99,,,-99.99,,2013-02-25 10:32:00,
2013-02-25 05:42:00,75.0,70.0,29.88,NE,35,3.0,8.0,85,-99.99,,,-99.99,,2013-02-25 10:42:00,
2013-02-25 05:52:00,75.0,71.0,29.88,ESE,103,4.0,8.0,87,-99.99,,,-99.99,,2013-02-25 10:52:00,
2013-02-25 06:01:00,75.0,71.0,29.88,SSE,165,5.0,13.0,87,-99.99,,,-99.99,,2013-02-25 11:01:00,
2013-02-25 06:11:00,75.0,71.0,29.88,SSE,165,5.0,13.0,87,-99.99,,,-99.99,,2013-02-25 11:11:00,
2013-02-25 06:22:00,75.0,71.0,29.88,South,186,2.0,6.0,87,-99.99,,,-99.99,,2013-02-25 11:22:00,
2013-02-25 06:32:00,75.0,71.0,29.88,NNE,25,2.0,4.0,87,-99.99,,,-99.99,,2013-02-25 11:32:00,
2013-02-25 06:42:00,75.0,71.0,29.88,NNE,25,2.0,4.0,87,-99.99,,,-99.99,,2013-02-25 11:42:00,
2013-02-25 06:52:00,75.0,71.0,29.88,SE,131,5.0,11.0,88,-99.99,,,-99.99,,2013-02-25 11:52:00,
2013-02-25 07:02:00,75.0,72.0,29.88,ESE,105,5.0,11.0,89,-99.99,,,-99.99,,2013-02-25 12:02:00,
2013-02-25 07:11:00,75.0,72.0,29.88,ESE,105,5.0,11.0,89,-99.99,,,-99.99,,2013-02-25 12:11:00,
2013-02-25 07:22:00,75.0,72.0,29.88,NE,34,5.0,9.0,89,-99.99,,,-99.99,,2013-02-25 12:22:00,
2013-02-25 07:32:00,75.0,72.0,29.88,SSE,150,5.0,10.0,89,-99.99,,,-99.99,,2013-02-25 12:32:00,
2013-02-25 07:42:00,75.0,72.0,29.88,SSE,150,5.0,10.0,89,-99.99,,,-99.99,,2013-02-25 12:42:00,
2013-02-25 07:55:00,75.0,71.0,29.88,SSE,162,5.0,9.0,88,-99.99,,,-99.99,,2013-02-25 12:55:00,
2013-02-25 08:02:00,75.0,71.0,29.88,SE,136,5.0,10.0,88,-99.99,,,-99.99,,2013-02-25 13:02:00,
2013-02-25 08:12:00,75.0,71.0,29.88,SE,136,5.0,10.0,88,-99.99,,,-99.99,,2013-02-25 13:12:00,
2013-02-25 08:22:00,76.0,72.0,29.89,ENE,75,5.0,9.0,87,-99.99,,,-99.99,,2013-02-25 13:22:00,
2013-02-25 08:32:00,76.0,72.0,29.90,ENE,72,4.0,8.0,87,-99.99,,,-99.99,,2013-02-25 13:32:00,
2013-02-25 08:42:00,76.0,72.0,29.90,ENE,72,4.0,8.0,87,-99.99,,,-99.99,,2013-02-25 13:42:00,
2013-02-25 08:52:00,76.0,72.0,29.91,SE,142,5.0,10.0,87,-99.99,,,-99.99,,2013-02-25 13:52:00,
2013-02-25 09:03:00,77.0,72.0,29.92,NNE,23,4.0,7.0,85,-99.99,,,-99.99,,2013-02-25 14:03:00,
2013-02-25 09:17:00,77.0,72.0,29.92,NNE,23,4.0,7.0,85,-99.99,,,-99.99,,2013-02-25 14:17:00,
2013-02-25 09:32:00,77.0,71.0,29.92,ESE,110,5.0,9.0,83,-99.99,,,-99.99,,2013-02-25 14:32:00,
2013-02-25 09:42:00,77.0,71.0,29.92,ESE,110,5.0,9.0,83,-99.99,,,-99.99,,2013-02-25 14:42:00,
2013-02-25 09:52:00,77.0,72.0,29.92,East,94,5.0,10.0,84,-99.99,,,-99.99,,2013-02-25 14:52:00,
2013-02-25 10:03:00,77.0,72.0,29.92,ESE,113,4.0,11.0,84,-99.99,,,-99.99,,2013-02-25 15:03:00,
2013-02-25 10:11:00,77.0,72.0,29.92,ESE,113,4.0,11.0,84,-99.99,,,-99.99,,2013-02-25 15:11:00,
2013-02-25 10:22:00,78.0,72.0,29.92,ESE,115,4.0,10.0,82,-99.99,,,-99.99,,2013-02-25 15:22:00,
2013-02-25 10:32:00,78.0,71.0,29.91,South,181,5.0,9.0,80,-99.99,,,-99.99,,2013-02-25 15:32:00,
2013-02-25 10:42:00,78.0,71.0,29.91,South,181,5.0,9.0,80,-99.99,,,-99.99,,2013-02-25 15:42:00,
2013-02-25 10:52:00,78.0,72.0,29.91,ESE,115,5.0,10.0,81,-99.99,,,-99.99,,2013-02-25 15:52:00,
2013-02-25 11:02:00,79.0,72.0,29.91,South,177,5.0,10.0,79,-99.99,,,-99.99,,2013-02-25 16:02:00,
2013-02-25 11:12:00,79.0,72.0,29.91,South,177,5.0,10.0,79,-99.99,,,-99.99,,2013-02-25 16:12:00,
2013-02-25 11:22:00,79.0,71.0,29.91,East,89,5.0,9.0,77,-99.99,,,-99.99,,2013-02-25 16:22:00,
2013-02-25 11:32:00,80.0,72.0,29.91,ESE,120,5.0,11.0,77,-99.99,,,-99.99,,2013-02-25 16:32:00,
2013-02-25 11:42:00,80.0,72.0,29.91,ESE,120,5.0,11.0,77,-99.99,,,-99.99,,2013-02-25 16:42:00,
2013-02-25 11:52:00,79.0,71.0,29.91,East,82,5.0,12.0,77,-99.99,,,-99.99,,2013-02-25 16:52:00,
2013-02-25 12:01:00,79.0,72.0,29.90,SE,146,6.0,13.0,78,-99.99,,,-99.99,,2013-02-25 17:01:00,
2013-02-25 12:11:00,79.0,72.0,29.90,SE,146,6.0,13.0,78,-99.99,,,-99.99,,2013-02-25 17:11:00,
2013-02-25 12:21:00,80.0,72.0,29.90,ESE,122,6.0,11.0,77,-99.99,,,-99.99,,2013-02-25 17:21:00,
2013-02-25 12:32:00,80.0,72.0,29.89,ENE,68,6.0,11.0,77,-99.99,,,-99.99,,2013-02-25 17:32:00,
2013-02-25 12:42:00,80.0,72.0,29.89,ENE,68,6.0,11.0,77,-99.99,,,-99.99,,2013-02-25 17:42:00,
2013-02-25 12:52:00,79.0,71.0,29.88,NNW,346,7.0,15.0,77,-99.99,,,-99.99,,2013-02-25 17:52:00,
2013-02-25 13:01:00,79.0,72.0,29.87,ENE,59,7.0,13.0,79,-99.99,,,-99.99,,2013-02-25 18:01:00,
2013-02-25 13:12:00,79.0,72.0,29.87,ENE,59,7.0,13.0,79,-99.99,,,-99.99,,2013-02-25 18:12:00,
2013-02-25 13:21:00,79.0,72.0,29.86,SE,135,8.0,18.0,79,-99.99,,,-99.99,,2013-02-25 18:21:00,
2013-02-25 13:32:00,79.0,72.0,29.86,NNE,27,7.0,15.0,79,-99.99,,,-99.99,,2013-02-25 18:32:00,
2013-02-25 13:42:00,79.0,72.0,29.86,NNE,27,7.0,15.0,79,-99.99,,,-99.99,,2013-02-25 18:42:00,
2013-02-25 13:52:00,79.0,71.0,29.85,ENE,60,8.0,18.0,76,-99.99,,,-99.99,,2013-02-25 18:52:00,
2013-02-25 14:01:00,79.0,70.0,29.85,ENE,73,6.0,14.0,75,-99.99,,,-99.99,,2013-02-25 19:01:00,
2013-02-25 14:11:00,79.0,70.0,29.85,ENE,73,6.0,14.0,75,-99.99,,,-99.99,,2013-02-25 19:11:00,
2013-02-25 14:21:00,79.0,71.0,29.85,ESE,105,7.0,12.0,76,-99.99,,,-99.99,,2013-02-25 19:21:00,
2013-02-25 14:32:00,79.0,71.0,29.85,SE,145,7.0,15.0,77,-99.99,,,-99.99,,2013-02-25 19:32:00,
2013-02-25 14:42:00,79.0,71.0,29.85,SE,145,7.0,15.0,77,-99.99,,,-99.99,,2013-02-25 19:42:00,
2013-02-25 14:52:00,78.0,71.0,29.85,East,86,8.0,15.0,79,-99.99,,,-99.99,,2013-02-25 19:52:00,
2013-02-25 15:01:00,79.0,72.0,29.84,ENE,59,8.0,15.0,78,-99.99,,,-99.99,,2013-02-25 20:01:00,
2013-02-25 15:11:00,79.0,72.0,29.84,ENE,59,8.0,15.0,78,-99.99,,,-99.99,,2013-02-25 20:11:00,
2013-02-25 15:21:00,78.0,71.0,29.83,ESE,114,8.0,22.0,79,-99.99,,,-99.99,,2013-02-25 20:21:00,
2013-02-25 15:32:00,78.0,71.0,29.84,NE,44,8.0,13.0,80,-99.99,,,-99.99,,2013-02-25 20:32:00,
2013-02-25 15:42:00,78.0,71.0,29.84,NE,44,8.0,13.0,80,-99.99,,,-99.99,,2013-02-25 20:42:00,
2013-02-25 15:52:00,79.0,71.0,29.84,ENE,76,7.0,13.0,76,-99.99,,,-99.99,,2013-02-25 20:52:00,
2013-02-25 16:01:00,79.0,71.0,29.83,ESE,105,7.0,15.0,77,-99.99,,,-99.99,,2013-02-25 21:01:00,
2013-02-25 16:11:00,79.0,71.0,29.83,ESE,105,7.0,15.0,77,-99.99,,,-99.99,,2013-02-25 21:11:00,
2013-02-25 16:21:00,79.0,71.0,29.83,ENE,60,6.0,14.0,76,-99.99,,,-99.99,,2013-02-25 21:21:00,
2013-02-25 16:32:00,78.0,71.0,29.83,SSE,160,9.0,25.0,79,-99.99,,,-99.99,,2013-02-25 21:32:00,
2013-02-25 16:42:00,78.0,71.0,29.83,SSE,160,9.0,25.0,79,-99.99,,,-99.99,,2013-02-25 21:42:00,
2013-02-25 16:52:00,79.0,72.0,29.83,ENE,77,6.0,13.0,78,-99.99,,,-99.99,,2013-02-25 21:52:00,
2013-02-25 17:01:00,78.0,71.0,29.83,NNE,31,6.0,10.0,79,-99.99,,,-99.99,,2013-02-25 22:01:00,
2013-02-25 17:11:00,78.0,71.0,29.83,NNE,31,6.0,10.0,79,-99.99,,,-99.99,,2013-02-25 22:11:00,
2013-02-25 17:21:00,78.0,71.0,29.83,SSE,165,7.0,24.0,79,-99.99,,,-99.99,,2013-02-25 22:21:00,
2013-02-25 17:32:00,78.0,71.0,29.83,NE,52,6.0,13.0,80,-99.99,,,-99.99,,2013-02-25 22:32:00,
2013-02-25 17:42:00,78.0,71.0,29.83,NE,52,6.0,13.0,80,-99.99,,,-99.99,,2013-02-25 22:42:00,
2013-02-25 17:52:00,78.0,72.0,29.84,ESE,114,6.0,13.0,81,-99.99,,,-99.99,,2013-02-25 22:52:00,
2013-02-25 18:01:00,78.0,71.0,29.84,SE,128,5.0,10.0,80,-99.99,,,-99.99,,2013-02-25 23:01:00,
2013-02-25 18:11:00,78.0,71.0,29.84,SE,128,5.0,10.0,80,-99.99,,,-99.99,,2013-02-25 23:11:00,
2013-02-25 18:22:00,77.0,71.0,29.84,ESE,107,5.0,10.0,82,-99.99,,,-99.99,,2013-02-25 23:22:00,
2013-02-25 18:32:00,77.0,69.0,29.83,SSE,153,5.0,13.0,77,-99.99,,,-99.99,,2013-02-25 23:32:00,
2013-02-25 18:42:00,77.0,69.0,29.83,SSE,153,5.0,13.0,77,-99.99,,,-99.99,,2013-02-25 23:42:00,
2013-02-25 18:52:00,77.0,70.0,29.84,SSE,155,5.0,9.0,78,-99.99,,,-99.99,,2013-02-25 23:52:00,
2013-02-25 19:01:00,77.0,70.0,29.84,East,89,6.0,12.0,79,-99.99,,,-99.99,,2013-02-26 00:01:00,
2013-02-25 19:12:00,77.0,70.0,29.84,East,89,6.0,12.0,79,-99.99,,,-99.99,,2013-02-26 00:12:00,
2013-02-25 19:22:00,77.0,70.0,29.84,SSE,149,4.0,9.0,80,-99.99,,,-99.99,,2013-02-26 00:22:00,
2013-02-25 19:32:00,76.0,71.0,29.84,ENE,77,5.0,9.0,84,-99.99,,,-99.99,,2013-02-26 00:32:00,
2013-02-25 19:42:00,76.0,71.0,29.84,ENE,77,5.0,9.0,84,-99.99,,,-99.99,,2013-02-26 00:42:00,
2013-02-25 19:52:00,76.0,71.0,29.84,ESE,105,6.0,10.0,85,-99.99,,,-99.99,,2013-02-26 00:52:00,
2013-02-25 20:02:00,76.0,71.0,29.85,SE,124,5.0,11.0,85,-99.99,,,-99.99,,2013-02-26 01:02:00,
2013-02-25 20:11:00,76.0,71.0,29.85,SE,124,5.0,11.0,85,-99.99,,,-99.99,,2013-02-26 01:11:00,
2013-02-25 20:21:00,76.0,71.0,29.85,ENE,77,5.0,10.0,85,-99.99,,,-99.99,,2013-02-26 01:21:00,
2013-02-25 20:32:00,76.0,71.0,29.86,SE,132,5.0,13.0,84,-99.99,,,-99.99,,2013-02-26 01:32:00,
2013-02-25 20:42:00,76.0,71.0,29.86,SE,132,5.0,13.0,84,-99.99,,,-99.99,,2013-02-26 01:42:00,
2013-02-25 20:52:00,76.0,71.0,29.86,South,173,5.0,10.0,84,-99.99,,,-99.99,,2013-02-26 01:52:00,
2013-02-25 21:01:00,76.0,71.0,29.86,SE,146,5.0,9.0,85,-99.99,,,-99.99,,2013-02-26 02:01:00,
2013-02-25 21:11:00,76.0,71.0,29.86,SE,146,5.0,9.0,85,-99.99,,,-99.99,,2013-02-26 02:11:00,
2013-02-25 21:21:00,76.0,72.0,29.86,SE,142,5.0,11.0,86,-99.99,,,-99.99,,2013-02-26 02:21:00,
2013-02-25 21:32:00,76.0,72.0,29.86,SE,125,6.0,16.0,87,-99.99,,,-99.99,,2013-02-26 02:32:00,
2013-02-25 21:42:00,76.0,72.0,29.86,SE,125,6.0,16.0,87,-99.99,,,-99.99,,2013-02-26 02:42:00,
2013-02-25 21:52:00,76.0,72.0,29.86,SSE,159,6.0,11.0,87,-99.99,,,-99.99,,2013-02-26 02:52:00,
2013-02-25 22:02:00,75.0,71.0,29.87,ESE,104,7.0,13.0,87,-99.99,,,-99.99,,2013-02-26 03:02:00,
2013-02-25 22:11:00,75.0,71.0,29.87,ESE,104,7.0,13.0,87,-99.99,,,-99.99,,2013-02-26 03:11:00,
2013-02-25 22:22:00,76.0,72.0,29.86,ENE,65,6.0,12.0,88,-99.99,,,-99.99,,2013-02-26 03:22:00,
2013-02-25 22:32:00,75.0,71.0,29.86,NNE,20,7.0,14.0,88,-99.99,,,-99.99,,2013-02-26 03:32:00,
2013-02-25 22:42:00,75.0,71.0,29.86,NNE,20,7.0,14.0,88,-99.99,,,-99.99,,2013-02-26 03:42:00,
2013-02-25 22:52:00,76.0,72.0,29.86,NNE,31,7.0,12.0,87,-99.99,,,-99.99,,2013-02-26 03:52:00,
2013-02-25 23:01:00,75.0,71.0,29.85,SE,145,8.0,18.0,87,-99.99,,,-99.99,,2013-02-26 04:01:00,
2013-02-25 23:11:00,75.0,71.0,29.85,SE,145,8.0,18.0,87,-99.99,,,-99.99,,2013-02-26 04:11:00,
2013-02-25 23:22:00,76.0,72.0,29.85,SE,128,8.0,19.0,87,-99.99,,,-99.99,,2013-02-26 04:22:00,
2013-02-25 23:32:00,75.0,71.0,29.85,ENE,60,8.0,13.0,87,-99.99,,,-99.99,,2013-02-26 04:32:00,
2013-02-25 23:42:00,75.0,71.0,29.85,ENE,60,8.0,13.0,87,-99.99,,,-99.99,,2013-02-26 04:42:00,
2013-02-25 23:52:00,75.0,71.0,29.85,East,94,8.0,15.0,87,-99.99,,,-99.99,,2013-02-26 04:52:00,